sensor_id;sensor_type;location;lat;lon;timestamp;pressure;altitude;pressure_sealevel;temperature;humidity
77147;BME280;66121;52.584;9.694;2023-06-14T00:01:31;101347.19;;;15.39;58.98
77147;BME280;66121;52.584;9.694;2023-06-14T00:03:59;101346.41;;;15.35;59.19
77147;BME280;66121;52.584;9.694;2023-06-14T00:06:25;101346.44;;;15.17;59.90
77147;BME280;66121;52.584;9.694;2023-06-14T00:08:51;101338.88;;;15.07;60.57
77147;BME280;66121;52.584;9.694;2023-06-14T00:11:16;101353.19;;;15.02;61.18
77147;BME280;66121;52.584;9.694;2023-06-14T00:13:42;101347.63;;;14.92;62.15
77147;BME280;66121;52.584;9.694;2023-06-14T00:16:08;101350.00;;;14.75;62.82
77147;BME280;66121;52.584;9.694;2023-06-14T00:18:33;101355.94;;;14.81;62.01
77147;BME280;66121;52.584;9.694;2023-06-14T00:20:59;101361.06;;;14.68;62.06
77147;BME280;66121;52.584;9.694;2023-06-14T00:23:24;101347.19;;;14.58;62.53
77147;BME280;66121;52.584;9.694;2023-06-14T00:25:50;101357.09;;;14.52;63.57
77147;BME280;66121;52.584;9.694;2023-06-14T00:28:15;101365.06;;;14.60;63.37
77147;BME280;66121;52.584;9.694;2023-06-14T00:30:41;101355.53;;;14.65;62.90
77147;BME280;66121;52.584;9.694;2023-06-14T00:33:06;101339.25;;;14.46;63.01
77147;BME280;66121;52.584;9.694;2023-06-14T00:35:31;101353.13;;;14.56;62.84
77147;BME280;66121;52.584;9.694;2023-06-14T00:37:57;101370.19;;;14.55;64.08
77147;BME280;66121;52.584;9.694;2023-06-14T00:40:22;101365.81;;;14.43;64.18
77147;BME280;66121;52.584;9.694;2023-06-14T00:42:48;101377.69;;;14.44;63.60
77147;BME280;66121;52.584;9.694;2023-06-14T00:45:13;101361.75;;;14.23;63.96
77147;BME280;66121;52.584;9.694;2023-06-14T00:47:40;101384.84;;;14.45;64.73
77147;BME280;66121;52.584;9.694;2023-06-14T00:50:07;101369.34;;;14.37;64.94
77147;BME280;66121;52.584;9.694;2023-06-14T00:52:32;101347.06;;;14.23;63.95
77147;BME280;66121;52.584;9.694;2023-06-14T00:54:58;101385.59;;;14.35;64.77
77147;BME280;66121;52.584;9.694;2023-06-14T00:57:23;101377.59;;;14.23;64.93
77147;BME280;66121;52.584;9.694;2023-06-14T00:59:49;101380.38;;;14.23;65.43
77147;BME280;66121;52.584;9.694;2023-06-14T01:02:16;101370.81;;;14.09;65.10
77147;BME280;66121;52.584;9.694;2023-06-14T01:04:43;101363.63;;;13.98;66.00
77147;BME280;66121;52.584;9.694;2023-06-14T01:07:41;101379.13;;;14.06;66.88
77147;BME280;66121;52.584;9.694;2023-06-14T01:13:12;101380.31;;;14.08;66.90
77147;BME280;66121;52.584;9.694;2023-06-14T01:15:40;101376.72;;;14.04;66.68
77147;BME280;66121;52.584;9.694;2023-06-14T01:18:08;101376.34;;;14.09;66.52
77147;BME280;66121;52.584;9.694;2023-06-14T01:20:34;101385.47;;;14.10;66.67
77147;BME280;66121;52.584;9.694;2023-06-14T01:23:02;101386.25;;;14.07;66.80
77147;BME280;66121;52.584;9.694;2023-06-14T01:25:28;101368.06;;;14.20;66.88
77147;BME280;66121;52.584;9.694;2023-06-14T01:28:01;101371.19;;;14.01;66.56
77147;BME280;66121;52.584;9.694;2023-06-14T01:30:29;101375.09;;;13.96;67.60
77147;BME280;66121;52.584;9.694;2023-06-14T01:32:56;101375.09;;;13.93;67.02
77147;BME280;66121;52.584;9.694;2023-06-14T01:35:22;101376.66;;;13.94;67.71
77147;BME280;66121;52.584;9.694;2023-06-14T01:37:49;101378.69;;;13.93;67.09
77147;BME280;66121;52.584;9.694;2023-06-14T01:40:15;101320.59;;;13.56;67.80
77147;BME280;66121;52.584;9.694;2023-06-14T01:42:42;101356.84;;;13.88;67.68
77147;BME280;66121;52.584;9.694;2023-06-14T01:45:10;101376.63;;;13.83;67.49
77147;BME280;66121;52.584;9.694;2023-06-14T01:47:36;101386.22;;;14.00;67.38
77147;BME280;66121;52.584;9.694;2023-06-14T01:50:04;101383.38;;;13.89;67.38
77147;BME280;66121;52.584;9.694;2023-06-14T01:52:30;101384.13;;;13.79;68.21
77147;BME280;66121;52.584;9.694;2023-06-14T01:54:56;101384.13;;;13.76;68.96
77147;BME280;66121;52.584;9.694;2023-06-14T01:57:22;101389.19;;;13.63;68.74
77147;BME280;66121;52.584;9.694;2023-06-14T01:59:47;101377.66;;;13.57;69.15
77147;BME280;66121;52.584;9.694;2023-06-14T02:02:14;101384.38;;;13.53;69.21
77147;BME280;66121;52.584;9.694;2023-06-14T02:04:40;101373.63;;;13.44;68.62
77147;BME280;66121;52.584;9.694;2023-06-14T02:07:06;101389.56;;;13.62;69.54
77147;BME280;66121;52.584;9.694;2023-06-14T02:09:31;101386.44;;;13.63;69.18
77147;BME280;66121;52.584;9.694;2023-06-14T02:11:57;101379.53;;;13.39;69.91
77147;BME280;66121;52.584;9.694;2023-06-14T02:14:22;101376.69;;;13.32;69.21
77147;BME280;66121;52.584;9.694;2023-06-14T02:16:48;101391.81;;;13.42;69.66
77147;BME280;66121;52.584;9.694;2023-06-14T02:19:16;101383.00;;;13.29;69.84
77147;BME280;66121;52.584;9.694;2023-06-14T02:21:42;101396.88;;;13.29;70.28
77147;BME280;66121;52.584;9.694;2023-06-14T02:24:08;101405.63;;;13.35;70.15
77147;BME280;66121;52.584;9.694;2023-06-14T02:26:34;101401.25;;;13.30;70.27
77147;BME280;66121;52.584;9.694;2023-06-14T02:28:59;101382.09;;;13.11;70.95
77147;BME280;66121;52.584;9.694;2023-06-14T02:31:25;101397.22;;;13.21;70.31
77147;BME280;66121;52.584;9.694;2023-06-14T02:33:50;101396.38;;;13.17;70.06
77147;BME280;66121;52.584;9.694;2023-06-14T02:36:15;101398.69;;;13.08;71.91
77147;BME280;66121;52.584;9.694;2023-06-14T02:38:41;101398.28;;;13.09;70.85
77147;BME280;66121;52.584;9.694;2023-06-14T02:41:06;101393.84;;;13.01;70.60
77147;BME280;66121;52.584;9.694;2023-06-14T02:43:32;101387.44;;;12.93;72.03
77147;BME280;66121;52.584;9.694;2023-06-14T02:45:57;101398.06;;;12.88;72.38
77147;BME280;66121;52.584;9.694;2023-06-14T02:48:22;101364.22;;;12.65;72.29
77147;BME280;66121;52.584;9.694;2023-06-14T02:50:48;101399.22;;;12.83;73.08
77147;BME280;66121;52.584;9.694;2023-06-14T02:53:13;101392.75;;;12.72;73.26
77147;BME280;66121;52.584;9.694;2023-06-14T02:55:38;101417.00;;;12.82;72.73
77147;BME280;66121;52.584;9.694;2023-06-14T02:58:05;101416.59;;;12.80;72.75
77147;BME280;66121;52.584;9.694;2023-06-14T03:00:30;101392.66;;;12.62;73.82
77147;BME280;66121;52.584;9.694;2023-06-14T03:02:55;101407.75;;;12.68;73.09
77147;BME280;66121;52.584;9.694;2023-06-14T03:05:21;101400.47;;;12.53;73.81
77147;BME280;66121;52.584;9.694;2023-06-14T03:07:47;101429.84;;;12.64;73.91
77147;BME280;66121;52.584;9.694;2023-06-14T03:10:12;101437.88;;;12.73;74.26
77147;BME280;66121;52.584;9.694;2023-06-14T03:12:38;101409.94;;;12.52;74.08
77147;BME280;66121;52.584;9.694;2023-06-14T03:15:04;101430.25;;;12.63;73.20
77147;BME280;66121;52.584;9.694;2023-06-14T03:17:30;101424.31;;;12.64;73.67
77147;BME280;66121;52.584;9.694;2023-06-14T03:19:58;101438.59;;;12.66;73.54
77147;BME280;66121;52.584;9.694;2023-06-14T03:22:24;101442.06;;;12.56;74.10
77147;BME280;66121;52.584;9.694;2023-06-14T03:24:51;101436.88;;;12.55;74.55
77147;BME280;66121;52.584;9.694;2023-06-14T03:27:16;101428.16;;;12.53;74.65
77147;BME280;66121;52.584;9.694;2023-06-14T03:29:42;101439.69;;;12.58;74.16
77147;BME280;66121;52.584;9.694;2023-06-14T03:32:07;101440.78;;;12.50;74.86
77147;BME280;66121;52.584;9.694;2023-06-14T03:34:33;101437.22;;;12.50;74.78
77147;BME280;66121;52.584;9.694;2023-06-14T03:36:58;101445.16;;;12.51;75.92
77147;BME280;66121;52.584;9.694;2023-06-14T03:39:24;101457.81;;;12.52;75.03
77147;BME280;66121;52.584;9.694;2023-06-14T03:41:49;101410.69;;;12.15;76.22
77147;BME280;66121;52.584;9.694;2023-06-14T03:44:17;101470.47;;;12.53;76.17
77147;BME280;66121;52.584;9.694;2023-06-14T03:46:43;101459.00;;;12.51;75.25
77147;BME280;66121;52.584;9.694;2023-06-14T03:49:08;101451.38;;;12.45;74.02
77147;BME280;66121;52.584;9.694;2023-06-14T03:51:35;101458.31;;;12.61;74.94
77147;BME280;66121;52.584;9.694;2023-06-14T03:54:00;101397.38;;;12.24;74.46
77147;BME280;66121;52.584;9.694;2023-06-14T03:56:26;101433.81;;;12.63;75.15
77147;BME280;66121;52.584;9.694;2023-06-14T03:58:52;101445.66;;;12.60;74.73
77147;BME280;66121;52.584;9.694;2023-06-14T04:01:18;101448.50;;;12.67;75.10
77147;BME280;66121;52.584;9.694;2023-06-14T04:03:43;101394.41;;;12.40;75.46
77147;BME280;66121;52.584;9.694;2023-06-14T04:06:08;101462.13;;;12.83;74.67
77147;BME280;66121;52.584;9.694;2023-06-14T04:08:34;101400.19;;;12.61;73.81
77147;BME280;66121;52.584;9.694;2023-06-14T04:11:00;101403.78;;;12.65;74.27
77147;BME280;66121;52.584;9.694;2023-06-14T04:13:26;101462.94;;;13.24;74.12
77147;BME280;66121;52.584;9.694;2023-06-14T04:15:51;101402.69;;;12.77;74.04
77147;BME280;66121;52.584;9.694;2023-06-14T04:18:17;101413.25;;;13.01;73.18
77147;BME280;66121;52.584;9.694;2023-06-14T04:20:47;101402.31;;;13.19;72.73
77147;BME280;66121;52.584;9.694;2023-06-14T04:23:17;101416.75;;;13.42;71.30
77147;BME280;66121;52.584;9.694;2023-06-14T04:25:46;101399.56;;;13.77;70.95
77147;BME280;66121;52.584;9.694;2023-06-14T04:28:13;101414.78;;;14.04;70.01
77147;BME280;66121;52.584;9.694;2023-06-14T04:30:42;101441.53;;;14.33;68.87
77147;BME280;66121;52.584;9.694;2023-06-14T04:33:08;101470.63;;;14.74;68.87
77147;BME280;66121;52.584;9.694;2023-06-14T04:35:35;101421.41;;;14.68;67.64
77147;BME280;66121;52.584;9.694;2023-06-14T04:38:02;101422.66;;;14.88;66.95
77147;BME280;66121;52.584;9.694;2023-06-14T04:40:30;101466.38;;;15.33;66.57
77147;BME280;66121;52.584;9.694;2023-06-14T04:42:56;101482.28;;;15.86;65.43
77147;BME280;66121;52.584;9.694;2023-06-14T04:45:22;101500.56;;;15.90;64.78
77147;BME280;66121;52.584;9.694;2023-06-14T04:47:47;101485.47;;;15.88;64.42
77147;BME280;66121;52.584;9.694;2023-06-14T04:50:13;101501.72;;;16.14;63.30
77147;BME280;66121;52.584;9.694;2023-06-14T04:52:38;101492.91;;;16.37;62.31
77147;BME280;66121;52.584;9.694;2023-06-14T04:55:04;101485.25;;;16.69;61.88
77147;BME280;66121;52.584;9.694;2023-06-14T04:57:29;101478.13;;;16.50;61.34
77147;BME280;66121;52.584;9.694;2023-06-14T04:59:54;101511.03;;;16.87;60.73
77147;BME280;66121;52.584;9.694;2023-06-14T05:02:21;101508.25;;;17.49;59.87
77147;BME280;66121;52.584;9.694;2023-06-14T05:04:47;101519.97;;;17.30;58.98
77147;BME280;66121;52.584;9.694;2023-06-14T05:07:12;101510.50;;;17.68;58.78
77147;BME280;66121;52.584;9.694;2023-06-14T05:09:39;101500.94;;;17.69;57.50
77147;BME280;66121;52.584;9.694;2023-06-14T05:12:05;101494.34;;;17.90;56.73
77147;BME280;66121;52.584;9.694;2023-06-14T05:14:33;101506.03;;;18.22;56.32
77147;BME280;66121;52.584;9.694;2023-06-14T05:16:58;101512.50;;;18.12;56.20
77147;BME280;66121;52.584;9.694;2023-06-14T05:19:23;101515.16;;;18.26;55.83
77147;BME280;66121;52.584;9.694;2023-06-14T05:21:48;101524.66;;;18.32;55.38
77147;BME280;66121;52.584;9.694;2023-06-14T05:24:14;101518.13;;;18.49;55.11
77147;BME280;66121;52.584;9.694;2023-06-14T05:26:40;101520.59;;;18.74;55.33
77147;BME280;66121;52.584;9.694;2023-06-14T05:29:05;101515.50;;;18.65;54.56
77147;BME280;66121;52.584;9.694;2023-06-14T05:31:31;101537.25;;;18.10;55.30
77147;BME280;66121;52.584;9.694;2023-06-14T05:34:05;101516.34;;;18.62;54.82
77147;BME280;66121;52.584;9.694;2023-06-14T05:36:30;101489.81;;;18.40;54.33
77147;BME280;66121;52.584;9.694;2023-06-14T05:38:56;101532.22;;;19.29;53.42
77147;BME280;66121;52.584;9.694;2023-06-14T05:41:27;101515.66;;;19.42;52.09
77147;BME280;66121;52.584;9.694;2023-06-14T05:43:54;101537.38;;;19.61;51.93
77147;BME280;66121;52.584;9.694;2023-06-14T05:46:19;101511.56;;;18.93;52.57
77147;BME280;66121;52.584;9.694;2023-06-14T05:48:48;101468.00;;;18.92;51.86
77147;BME280;66121;52.584;9.694;2023-06-14T05:51:16;101475.16;;;18.97;53.30
77147;BME280;66121;52.584;9.694;2023-06-14T05:53:44;101502.06;;;19.44;51.19
77147;BME280;66121;52.584;9.694;2023-06-14T05:56:10;101531.69;;;19.65;51.45
77147;BME280;66121;52.584;9.694;2023-06-14T05:58:35;101506.41;;;19.18;52.30
77147;BME280;66121;52.584;9.694;2023-06-14T06:01:01;101500.00;;;19.18;51.22
77147;BME280;66121;52.584;9.694;2023-06-14T06:03:29;101549.06;;;20.03;51.74
77147;BME280;66121;52.584;9.694;2023-06-14T06:06:02;101507.53;;;19.74;50.16
77147;BME280;66121;52.584;9.694;2023-06-14T06:08:33;101523.16;;;20.18;50.00
77147;BME280;66121;52.584;9.694;2023-06-14T06:10:58;101478.75;;;19.74;49.04
77147;BME280;66121;52.584;9.694;2023-06-14T06:13:33;101554.25;;;20.04;48.85
77147;BME280;66121;52.584;9.694;2023-06-14T06:16:09;101484.53;;;19.86;50.38
77147;BME280;66121;52.584;9.694;2023-06-14T06:18:37;101483.63;;;19.47;49.39
77147;BME280;66121;52.584;9.694;2023-06-14T06:21:04;101523.28;;;19.65;50.77
77147;BME280;66121;52.584;9.694;2023-06-14T06:23:39;101518.56;;;19.85;49.22
77147;BME280;66121;52.584;9.694;2023-06-14T06:26:08;101491.34;;;19.85;49.22
77147;BME280;66121;52.584;9.694;2023-06-14T06:28:34;101496.53;;;19.37;49.57
77147;BME280;66121;52.584;9.694;2023-06-14T06:31:00;101523.81;;;19.83;51.66
77147;BME280;66121;52.584;9.694;2023-06-14T06:33:27;101494.09;;;19.66;48.83
77147;BME280;66121;52.584;9.694;2023-06-14T06:35:53;101490.50;;;19.88;48.34
77147;BME280;66121;52.584;9.694;2023-06-14T06:38:18;101480.91;;;19.13;49.41
77147;BME280;66121;52.584;9.694;2023-06-14T06:40:46;101499.25;;;19.44;49.18
77147;BME280;66121;52.584;9.694;2023-06-14T06:43:14;101554.94;;;20.12;48.69
77147;BME280;66121;52.584;9.694;2023-06-14T06:45:42;101522.09;;;19.89;49.71
77147;BME280;66121;52.584;9.694;2023-06-14T06:48:07;101527.66;;;20.12;48.01
77147;BME280;66121;52.584;9.694;2023-06-14T06:50:35;101546.34;;;20.42;49.89
77147;BME280;66121;52.584;9.694;2023-06-14T06:53:04;101532.72;;;20.44;47.14
77147;BME280;66121;52.584;9.694;2023-06-14T06:55:38;101551.22;;;20.61;46.93
77147;BME280;66121;52.584;9.694;2023-06-14T06:58:04;101550.53;;;20.34;47.10
77147;BME280;66121;52.584;9.694;2023-06-14T07:00:39;101575.03;;;20.07;47.43
77147;BME280;66121;52.584;9.694;2023-06-14T07:03:07;101521.84;;;19.80;47.42
77147;BME280;66121;52.584;9.694;2023-06-14T07:05:39;101517.00;;;20.27;46.55
77147;BME280;66121;52.584;9.694;2023-06-14T07:08:25;101540.69;;;20.65;45.15
77147;BME280;66121;52.584;9.694;2023-06-14T07:10:50;101582.75;;;21.04;45.13
77147;BME280;66121;52.584;9.694;2023-06-14T07:13:16;101564.94;;;20.95;45.70
77147;BME280;66121;52.584;9.694;2023-06-14T07:15:46;101542.69;;;20.84;44.15
77147;BME280;66121;52.584;9.694;2023-06-14T07:18:13;101540.91;;;20.94;43.77
77147;BME280;66121;52.584;9.694;2023-06-14T07:20:41;101559.81;;;21.61;44.31
77147;BME280;66121;52.584;9.694;2023-06-14T07:23:07;101551.09;;;21.24;43.94
77147;BME280;66121;52.584;9.694;2023-06-14T07:25:33;101523.38;;;21.26;43.39
77147;BME280;66121;52.584;9.694;2023-06-14T07:27:58;101541.97;;;21.88;42.53
77147;BME280;66121;52.584;9.694;2023-06-14T07:30:23;101574.41;;;22.37;42.25
77147;BME280;66121;52.584;9.694;2023-06-14T07:32:52;101570.50;;;21.86;42.96
77147;BME280;66121;52.584;9.694;2023-06-14T07:35:17;101564.06;;;22.02;44.14
77147;BME280;66121;52.584;9.694;2023-06-14T07:37:42;101558.63;;;21.95;42.87
77147;BME280;66121;52.584;9.694;2023-06-14T07:40:08;101568.19;;;21.65;42.58
77147;BME280;66121;52.584;9.694;2023-06-14T07:42:35;101575.25;;;22.05;43.16
77147;BME280;66121;52.584;9.694;2023-06-14T07:45:01;101573.56;;;22.81;41.18
77147;BME280;66121;52.584;9.694;2023-06-14T07:47:27;101567.94;;;22.81;40.96
77147;BME280;66121;52.584;9.694;2023-06-14T07:49:52;101539.69;;;22.72;42.05
77147;BME280;66121;52.584;9.694;2023-06-14T07:52:17;101574.69;;;23.13;41.59
77147;BME280;66121;52.584;9.694;2023-06-14T07:54:43;101564.59;;;23.78;39.55
77147;BME280;66121;52.584;9.694;2023-06-14T07:57:08;101567.00;;;24.01;38.64
77147;BME280;66121;52.584;9.694;2023-06-14T07:59:33;101558.94;;;23.91;39.20
77147;BME280;66121;52.584;9.694;2023-06-14T08:01:59;101570.34;;;23.37;38.53
77147;BME280;66121;52.584;9.694;2023-06-14T08:04:24;101569.88;;;23.76;38.53
77147;BME280;66121;52.584;9.694;2023-06-14T08:06:50;101567.94;;;23.23;40.69
77147;BME280;66121;52.584;9.694;2023-06-14T08:09:16;101567.25;;;23.31;38.91
77147;BME280;66121;52.584;9.694;2023-06-14T08:11:41;101571.31;;;23.93;38.27
77147;BME280;66121;52.584;9.694;2023-06-14T08:14:06;101555.09;;;23.22;39.21
77147;BME280;66121;52.584;9.694;2023-06-14T08:16:32;101567.19;;;24.32;37.77
77147;BME280;66121;52.584;9.694;2023-06-14T08:18:57;101569.28;;;24.41;36.57
77147;BME280;66121;52.584;9.694;2023-06-14T08:21:22;101575.41;;;24.39;36.58
77147;BME280;66121;52.584;9.694;2023-06-14T08:23:48;101565.53;;;24.22;36.84
77147;BME280;66121;52.584;9.694;2023-06-14T08:26:14;101569.34;;;24.28;37.06
77147;BME280;66121;52.584;9.694;2023-06-14T08:28:39;101567.78;;;24.49;36.25
77147;BME280;66121;52.584;9.694;2023-06-14T08:31:05;101577.75;;;24.96;38.93
77147;BME280;66121;52.584;9.694;2023-06-14T08:33:30;101561.97;;;25.39;37.12
77147;BME280;66121;52.584;9.694;2023-06-14T08:35:58;101574.38;;;24.67;35.40
77147;BME280;66121;52.584;9.694;2023-06-14T08:38:23;101556.19;;;25.12;35.72
77147;BME280;66121;52.584;9.694;2023-06-14T08:40:50;101565.69;;;25.27;36.06
77147;BME280;66121;52.584;9.694;2023-06-14T08:43:16;101563.94;;;25.51;35.40
77147;BME280;66121;52.584;9.694;2023-06-14T08:45:41;101560.00;;;25.97;36.83
77147;BME280;66121;52.584;9.694;2023-06-14T08:48:07;101567.91;;;25.32;34.18
77147;BME280;66121;52.584;9.694;2023-06-14T08:50:34;101571.41;;;25.14;34.38
77147;BME280;66121;52.584;9.694;2023-06-14T08:53:02;101569.06;;;24.69;34.00
77147;BME280;66121;52.584;9.694;2023-06-14T08:55:29;101574.38;;;25.11;35.94
77147;BME280;66121;52.584;9.694;2023-06-14T08:57:56;101572.44;;;25.29;34.86
77147;BME280;66121;52.584;9.694;2023-06-14T09:00:25;101577.81;;;25.36;34.47
77147;BME280;66121;52.584;9.694;2023-06-14T09:02:52;101571.63;;;25.20;34.16
77147;BME280;66121;52.584;9.694;2023-06-14T09:05:26;101580.81;;;24.68;35.44
77147;BME280;66121;52.584;9.694;2023-06-14T09:07:52;101555.22;;;24.84;35.25
77147;BME280;66121;52.584;9.694;2023-06-14T09:10:20;101570.13;;;24.84;34.63
77147;BME280;66121;52.584;9.694;2023-06-14T09:12:46;101581.81;;;24.95;35.83
77147;BME280;66121;52.584;9.694;2023-06-14T09:15:12;101580.34;;;25.43;35.69
77147;BME280;66121;52.584;9.694;2023-06-14T09:17:39;101565.00;;;24.92;34.60
77147;BME280;66121;52.584;9.694;2023-06-14T09:20:05;101589.94;;;24.72;35.45
77147;BME280;66121;52.584;9.694;2023-06-14T09:22:35;101590.03;;;25.33;34.77
77147;BME280;66121;52.584;9.694;2023-06-14T09:25:00;101565.31;;;24.72;35.93
77147;BME280;66121;52.584;9.694;2023-06-14T09:27:26;101575.41;;;25.26;35.21
77147;BME280;66121;52.584;9.694;2023-06-14T09:29:52;101575.59;;;25.31;35.02
77147;BME280;66121;52.584;9.694;2023-06-14T09:32:18;101565.78;;;25.94;34.67
77147;BME280;66121;52.584;9.694;2023-06-14T09:34:45;101583.91;;;25.56;34.35
77147;BME280;66121;52.584;9.694;2023-06-14T09:37:10;101573.56;;;24.79;35.48
77147;BME280;66121;52.584;9.694;2023-06-14T09:39:35;101581.78;;;24.52;34.98
77147;BME280;66121;52.584;9.694;2023-06-14T09:42:16;101588.16;;;25.30;36.17
77147;BME280;66121;52.584;9.694;2023-06-14T09:44:43;101580.03;;;25.72;34.67
77147;BME280;66121;52.584;9.694;2023-06-14T09:47:08;101576.66;;;26.04;34.96
77147;BME280;66121;52.584;9.694;2023-06-14T09:49:33;101570.72;;;24.58;36.05
77147;BME280;66121;52.584;9.694;2023-06-14T09:51:59;101574.22;;;24.27;36.38
77147;BME280;66121;52.584;9.694;2023-06-14T09:54:25;101570.25;;;25.55;35.08
77147;BME280;66121;52.584;9.694;2023-06-14T09:56:52;101576.00;;;25.21;35.99
77147;BME280;66121;52.584;9.694;2023-06-14T09:59:22;101570.47;;;25.79;34.20
77147;BME280;66121;52.584;9.694;2023-06-14T10:01:57;101568.53;;;24.62;35.51
77147;BME280;66121;52.584;9.694;2023-06-14T10:04:24;101568.59;;;25.14;35.87
77147;BME280;66121;52.584;9.694;2023-06-14T10:06:50;101555.38;;;24.24;36.52
77147;BME280;66121;52.584;9.694;2023-06-14T10:09:17;101538.97;;;24.32;35.75
77147;BME280;66121;52.584;9.694;2023-06-14T10:11:43;101564.50;;;24.84;35.26
77147;BME280;66121;52.584;9.694;2023-06-14T10:14:12;101571.75;;;25.16;35.29
77147;BME280;66121;52.584;9.694;2023-06-14T10:16:49;101575.69;;;25.98;36.18
77147;BME280;66121;52.584;9.694;2023-06-14T10:19:37;101563.19;;;25.59;36.33
77147;BME280;66121;52.584;9.694;2023-06-14T10:22:30;101562.03;;;26.06;33.81
77147;BME280;66121;52.584;9.694;2023-06-14T10:24:57;101555.03;;;25.00;34.66
77147;BME280;66121;52.584;9.694;2023-06-14T10:27:22;101560.53;;;25.65;34.69
77147;BME280;66121;52.584;9.694;2023-06-14T10:32:21;101551.75;;;27.68;33.39
77147;BME280;66121;52.584;9.694;2023-06-14T10:35:00;101547.81;;;26.37;33.13
77147;BME280;66121;52.584;9.694;2023-06-14T10:37:25;101576.78;;;25.92;35.41
77147;BME280;66121;52.584;9.694;2023-06-14T10:39:51;101558.97;;;26.22;33.85
77147;BME280;66121;52.584;9.694;2023-06-14T10:42:18;101550.63;;;27.33;35.10
77147;BME280;66121;52.584;9.694;2023-06-14T10:45:16;101539.13;;;26.58;32.86
77147;BME280;66121;52.584;9.694;2023-06-14T10:47:42;101546.38;;;26.50;33.37
77147;BME280;66121;52.584;9.694;2023-06-14T10:50:09;101558.78;;;26.89;33.72
77147;BME280;66121;52.584;9.694;2023-06-14T10:52:43;101540.72;;;26.59;33.02
77147;BME280;66121;52.584;9.694;2023-06-14T10:57:49;101547.00;;;26.81;35.37
77147;BME280;66121;52.584;9.694;2023-06-14T11:00:28;101540.25;;;27.72;33.22
77147;BME280;66121;52.584;9.694;2023-06-14T11:05:26;101531.88;;;27.44;32.37
77147;BME280;66121;52.584;9.694;2023-06-14T11:10:58;101533.59;;;26.00;34.45
77147;BME280;66121;52.584;9.694;2023-06-14T11:13:25;101529.47;;;25.34;35.31
77147;BME280;66121;52.584;9.694;2023-06-14T11:15:50;101547.91;;;24.95;35.81
77147;BME280;66121;52.584;9.694;2023-06-14T11:18:18;101555.06;;;24.44;36.95
77147;BME280;66121;52.584;9.694;2023-06-14T11:20:46;101550.31;;;24.41;37.70
77147;BME280;66121;52.584;9.694;2023-06-14T11:23:11;101548.59;;;25.30;37.17
77147;BME280;66121;52.584;9.694;2023-06-14T11:25:37;101537.59;;;25.63;36.14
77147;BME280;66121;52.584;9.694;2023-06-14T11:28:02;101536.53;;;25.39;35.85
77147;BME280;66121;52.584;9.694;2023-06-14T11:30:30;101504.44;;;25.24;35.94
77147;BME280;66121;52.584;9.694;2023-06-14T11:32:55;101534.47;;;24.56;36.77
77147;BME280;66121;52.584;9.694;2023-06-14T11:35:24;101466.41;;;23.64;38.48
77147;BME280;66121;52.584;9.694;2023-06-14T11:37:54;101534.47;;;23.88;38.54
77147;BME280;66121;52.584;9.694;2023-06-14T11:40:29;101484.31;;;24.17;38.78
77147;BME280;66121;52.584;9.694;2023-06-14T11:43:01;101531.75;;;25.18;37.80
77147;BME280;66121;52.584;9.694;2023-06-14T11:45:27;101535.16;;;26.10;35.76
77147;BME280;66121;52.584;9.694;2023-06-14T11:47:55;101510.94;;;26.73;34.65
77147;BME280;66121;52.584;9.694;2023-06-14T11:50:25;101526.59;;;26.32;34.79
77147;BME280;66121;52.584;9.694;2023-06-14T11:52:57;101496.63;;;26.85;35.07
77147;BME280;66121;52.584;9.694;2023-06-14T11:55:25;101500.41;;;28.14;34.76
77147;BME280;66121;52.584;9.694;2023-06-14T11:57:50;101497.28;;;27.64;32.96
77147;BME280;66121;52.584;9.694;2023-06-14T12:00:16;101539.84;;;25.77;34.59
77147;BME280;66121;52.584;9.694;2023-06-14T12:02:52;101495.25;;;25.32;35.75
77147;BME280;66121;52.584;9.694;2023-06-14T12:05:20;101535.44;;;25.06;37.99
77147;BME280;66121;52.584;9.694;2023-06-14T12:07:46;101503.19;;;24.85;38.01
77147;BME280;66121;52.584;9.694;2023-06-14T12:10:15;101469.75;;;24.62;37.70
77147;BME280;66121;52.584;9.694;2023-06-14T12:20:06;101459.84;;;25.49;36.21
77147;BME280;66121;52.584;9.694;2023-06-14T12:26:24;101506.94;;;25.13;36.08
77147;BME280;66121;52.584;9.694;2023-06-14T12:28:52;101507.56;;;26.14;35.06
77147;BME280;66121;52.584;9.694;2023-06-14T12:31:17;101500.88;;;26.90;34.16
77147;BME280;66121;52.584;9.694;2023-06-14T12:33:44;101483.91;;;26.81;32.66
77147;BME280;66121;52.584;9.694;2023-06-14T12:36:11;101445.94;;;27.62;33.07
77147;BME280;66121;52.584;9.694;2023-06-14T12:38:37;101479.66;;;28.60;32.27
77147;BME280;66121;52.584;9.694;2023-06-14T12:41:03;101494.91;;;28.10;30.83
77147;BME280;66121;52.584;9.694;2023-06-14T12:43:28;101507.63;;;27.43;33.89
77147;BME280;66121;52.584;9.694;2023-06-14T12:45:53;101495.19;;;26.99;31.55
77147;BME280;66121;52.584;9.694;2023-06-14T12:48:19;101465.59;;;27.33;33.50
77147;BME280;66121;52.584;9.694;2023-06-14T12:50:45;101469.94;;;27.99;32.58
77147;BME280;66121;52.584;9.694;2023-06-14T12:53:12;101466.44;;;28.87;32.25
77147;BME280;66121;52.584;9.694;2023-06-14T12:55:38;101503.75;;;28.80;31.59
77147;BME280;66121;52.584;9.694;2023-06-14T12:58:03;101451.94;;;27.55;32.06
77147;BME280;66121;52.584;9.694;2023-06-14T13:00:29;101448.25;;;27.07;34.21
77147;BME280;66121;52.584;9.694;2023-06-14T13:02:56;101485.00;;;26.74;32.63
77147;BME280;66121;52.584;9.694;2023-06-14T13:05:21;101496.78;;;26.73;33.65
77147;BME280;66121;52.584;9.694;2023-06-14T13:07:47;101460.19;;;26.51;32.39
77147;BME280;66121;52.584;9.694;2023-06-14T13:10:12;101470.59;;;27.05;33.34
77147;BME280;66121;52.584;9.694;2023-06-14T13:12:37;101501.16;;;27.43;32.51
77147;BME280;66121;52.584;9.694;2023-06-14T13:15:03;101498.31;;;27.43;32.91